Time;durP1;ratioP1;P1;durP2;ratioP2;P2;SDS_P1;SDS_P2;PMS_P1;PMS_P2;Temp;Humidity;BMP_temperature;BMP_pressure;BME280_temperature;BME280_humidity;BME280_pressure;Samples;Min_cycle;Max_cycle;Signal;HPM_P1;HPM_P2
2022/10/01 00:01:48;;;;;;;8.47;6.70;;;;;;;4.71;100.00;100421.56;4981045;28;20197;-69
2022/10/01 00:04:14;;;;;;;9.13;6.90;;;;;;;4.63;100.00;100419.06;4978418;28;20220;-70
2022/10/01 00:06:42;;;;;;;10.23;7.10;;;;;;;4.65;100.00;100413.88;4976339;28;20201;-71
2022/10/01 00:09:08;;;;;;;7.80;5.70;;;;;;;4.66;100.00;100411.28;4981944;28;20200;-70
2022/10/01 00:11:35;;;;;;;11.33;6.20;;;;;;;4.59;100.00;100409.63;4983288;28;20208;-71
2022/10/01 00:14:01;;;;;;;10.40;5.93;;;;;;;4.63;100.00;100410.44;4979239;28;21188;-70
2022/10/01 00:16:29;;;;;;;8.60;5.70;;;;;;;4.62;100.00;100412.16;4976665;28;20201;-70
2022/10/01 00:18:57;;;;;;;8.03;5.73;;;;;;;4.63;100.00;100413.88;4973071;28;20231;-71
2022/10/01 00:21:25;;;;;;;9.83;6.13;;;;;;;4.65;100.00;100406.13;4974569;28;20252;-72
2022/10/01 00:23:55;;;;;;;7.13;5.40;;;;;;;4.64;100.00;100409.56;4972954;28;20309;-70
2022/10/01 00:26:26;;;;;;;7.20;4.90;;;;;;;4.62;100.00;100416.47;4977912;28;20229;-69
2022/10/01 00:28:55;;;;;;;7.70;5.37;;;;;;;4.59;100.00;100407.03;4978920;28;20212;-70
2022/10/01 00:31:22;;;;;;;7.73;5.53;;;;;;;4.55;100.00;100415.63;4979393;28;20205;-71
2022/10/01 00:33:49;;;;;;;8.63;6.10;;;;;;;4.54;100.00;100413.94;4983771;28;20304;-69
2022/10/01 00:36:16;;;;;;;8.33;6.20;;;;;;;4.59;100.00;100412.19;4977742;28;20435;-69
2022/10/01 00:38:45;;;;;;;8.07;5.03;;;;;;;4.59;100.00;100400.97;4980788;28;20412;-70
2022/10/01 00:41:13;;;;;;;8.27;5.27;;;;;;;4.59;100.00;100403.56;4981987;28;20804;-72
2022/10/01 00:43:44;;;;;;;6.80;5.17;;;;;;;4.55;100.00;100403.56;4980005;28;20705;-71
2022/10/01 00:46:17;;;;;;;8.37;5.10;;;;;;;4.63;100.00;100405.28;4981742;28;20209;-70
2022/10/01 00:48:51;;;;;;;8.00;5.47;;;;;;;4.59;100.00;100409.63;4982657;28;20228;-72
2022/10/01 00:51:18;;;;;;;6.87;5.27;;;;;;;4.57;100.00;100397.56;4982675;28;20201;-70
2022/10/01 00:53:45;;;;;;;6.70;5.33;;;;;;;4.64;100.00;100399.25;4983580;28;20221;-71
2022/10/01 00:56:13;;;;;;;8.07;5.63;;;;;;;4.56;100.00;100391.53;4976628;28;20204;-71
2022/10/01 00:58:40;;;;;;;6.33;5.57;;;;;;;4.62;100.00;100395.81;4984601;28;20205;-71
2022/10/01 01:01:06;;;;;;;8.40;5.40;;;;;;;4.63;100.00;100395.81;4983395;28;20202;-71
2022/10/01 01:03:37;;;;;;;7.10;5.17;;;;;;;4.63;100.00;100395.81;4981986;28;20275;-71
2022/10/01 01:06:06;;;;;;;7.57;5.57;;;;;;;4.62;100.00;100396.66;4985250;28;20212;-70
2022/10/01 01:08:33;;;;;;;8.33;5.70;;;;;;;4.65;100.00;100403.56;4985905;28;20577;-71
2022/10/01 01:11:07;;;;;;;6.13;4.57;;;;;;;4.64;100.00;100404.41;4978322;28;20618;-71
2022/10/01 01:13:43;;;;;;;7.77;5.53;;;;;;;4.68;100.00;100401.81;4987194;28;20221;-71
2022/10/01 01:16:14;;;;;;;8.20;5.43;;;;;;;4.71;100.00;100401.81;4978340;28;20205;-70
2022/10/01 01:18:46;;;;;;;6.70;5.13;;;;;;;4.76;100.00;100395.72;4977472;28;20674;-72
2022/10/01 01:21:21;;;;;;;6.73;5.40;;;;;;;4.81;100.00;100399.16;4980274;28;20209;-71
2022/10/01 01:24:03;;;;;;;8.30;5.87;;;;;;;4.81;100.00;100396.56;4978962;28;20693;-71
2022/10/01 01:26:41;;;;;;;7.27;5.10;;;;;;;4.83;100.00;100393.09;4979914;28;20692;-71
2022/10/01 01:29:17;;;;;;;6.03;4.90;;;;;;;4.85;100.00;100390.50;5000879;28;20205;-71
2022/10/01 01:31:46;;;;;;;9.87;5.07;;;;;;;4.86;100.00;100390.50;4979087;28;20259;-71
2022/10/01 01:34:18;;;;;;;5.87;4.70;;;;;;;4.86;100.00;100384.47;4981433;28;20303;-69
2022/10/01 01:36:51;;;;;;;7.17;5.80;;;;;;;4.84;100.00;100378.47;4974674;28;20681;-70
2022/10/01 01:39:21;;;;;;;7.97;5.77;;;;;;;4.87;100.00;100379.31;4984072;28;20193;-71
2022/10/01 01:41:51;;;;;;;8.23;5.87;;;;;;;4.86;100.00;100380.16;4981448;28;20207;-71
2022/10/01 01:44:23;;;;;;;8.57;5.73;;;;;;;4.84;100.00;100378.47;4984829;28;20217;-71
2022/10/01 01:46:53;;;;;;;7.67;5.60;;;;;;;4.84;100.00;100378.47;4998667;28;20193;-71
2022/10/01 01:49:20;;;;;;;9.87;6.17;;;;;;;4.86;100.00;100369.84;4982312;28;20217;-71
2022/10/01 01:51:52;;;;;;;8.20;5.77;;;;;;;4.86;100.00;100366.41;4978319;28;20291;-71
2022/10/01 01:54:19;;;;;;;8.23;5.23;;;;;;;4.86;100.00;100369.00;4981147;28;20221;-71
2022/10/01 01:56:48;;;;;;;6.83;5.47;;;;;;;4.83;100.00;100369.84;4978564;28;20228;-70
2022/10/01 01:59:17;;;;;;;8.07;5.77;;;;;;;4.87;100.00;100374.16;4985363;28;20209;-69
2022/10/01 02:01:48;;;;;;;6.93;5.73;;;;;;;4.85;100.00;100375.84;4981888;28;20204;-70
2022/10/01 02:04:19;;;;;;;7.30;5.37;;;;;;;4.83;100.00;100369.00;4982016;28;20682;-70
2022/10/01 02:07:05;;;;;;;5.83;4.97;;;;;;;4.83;100.00;100371.56;4984340;28;20193;-70
2022/10/01 02:09:41;;;;;;;8.50;5.23;;;;;;;4.86;100.00;100369.84;4984672;28;20317;-68
2022/10/01 02:12:18;;;;;;;6.70;5.23;;;;;;;4.88;100.00;100364.66;4984994;28;20624;-69
2022/10/01 02:14:54;;;;;;;4.97;4.47;;;;;;;4.83;100.00;100359.50;5008612;23;20646;-74
2022/10/01 02:17:32;;;;;;;7.43;5.80;;;;;;;4.80;100.00;100356.97;5007312;28;20198;-74
2022/10/01 02:20:02;;;;;;;6.57;5.33;;;;;;;4.83;100.00;100359.50;4986871;28;20709;-73
2022/10/01 02:22:39;;;;;;;5.60;4.43;;;;;;;4.84;100.00;100355.22;4987506;28;20619;-73
2022/10/01 02:25:09;;;;;;;10.93;5.40;;;;;;;4.85;100.00;100355.19;4977387;28;20208;-72
2022/10/01 02:27:40;;;;;;;7.33;5.33;;;;;;;4.86;100.00;100369.00;4983419;28;20289;-72
2022/10/01 02:30:10;;;;;;;8.13;5.57;;;;;;;4.77;100.00;100367.31;4982450;28;20217;-72
2022/10/01 02:32:42;;;;;;;7.47;5.33;;;;;;;4.85;100.00;100364.66;4985031;28;20360;-73
2022/10/01 02:35:12;;;;;;;6.77;5.27;;;;;;;4.87;100.00;100365.50;4967851;28;20197;-72
2022/10/01 02:37:41;;;;;;;7.50;5.20;;;;;;;4.81;100.00;100363.84;4984102;28;20208;-72
2022/10/01 02:40:14;;;;;;;6.87;5.50;;;;;;;4.82;100.00;100362.09;4986782;28;20255;-73
2022/10/01 02:42:44;;;;;;;6.37;4.83;;;;;;;4.77;100.00;100358.69;4987041;28;20646;-75
2022/10/01 02:45:13;;;;;;;6.93;5.13;;;;;;;4.70;100.00;100355.31;4965345;28;20639;-73
2022/10/01 02:47:44;;;;;;;8.33;5.03;;;;;;;4.62;100.00;100350.19;4986855;28;20204;-74
2022/10/01 02:50:12;;;;;;;6.43;4.60;;;;;;;4.53;100.00;100347.66;4985767;28;20313;-74
2022/10/01 02:52:45;;;;;;;10.17;4.60;;;;;;;4.53;100.00;100342.50;4986340;28;20632;-74
2022/10/01 02:55:14;;;;;;;6.23;4.63;;;;;;;4.52;100.00;100348.50;4965388;28;20215;-74
2022/10/01 02:57:41;;;;;;;5.57;4.77;;;;;;;4.61;100.00;100350.19;4986575;28;20206;-75
2022/10/01 03:00:10;;;;;;;6.17;4.80;;;;;;;4.70;100.00;100344.97;4971920;28;20690;-74
2022/10/01 03:02:37;;;;;;;7.70;5.40;;;;;;;4.70;100.00;100345.81;4985114;28;20201;-74
2022/10/01 03:05:06;;;;;;;7.20;5.03;;;;;;;4.62;100.00;100352.75;4988330;28;20197;-75
2022/10/01 03:07:35;;;;;;;7.10;5.10;;;;;;;4.54;100.00;100347.66;4984773;28;20189;-74
2022/10/01 03:10:03;;;;;;;6.93;4.90;;;;;;;4.51;100.00;100347.66;4984884;28;20690;-74
2022/10/01 03:12:29;;;;;;;6.20;4.77;;;;;;;4.52;100.00;100343.34;4985692;28;20288;-75
2022/10/01 03:14:56;;;;;;;6.33;4.50;;;;;;;4.55;100.00;100340.75;4986535;28;20229;-74
2022/10/01 03:17:22;;;;;;;4.83;4.10;;;;;;;4.52;100.00;100336.47;4988949;28;20562;-74
2022/10/01 03:19:49;;;;;;;6.40;4.70;;;;;;;4.46;100.00;100335.66;4985854;28;20226;-74
2022/10/01 03:22:21;;;;;;;7.30;4.73;;;;;;;4.42;100.00;100336.53;4982484;28;20213;-74
2022/10/01 03:24:47;;;;;;;6.97;4.50;;;;;;;4.31;100.00;100340.03;4967972;28;20215;-74
2022/10/01 03:27:14;;;;;;;5.77;4.60;;;;;;;4.31;100.00;100341.72;4982126;28;20308;-74
2022/10/01 03:29:41;;;;;;;5.47;4.20;;;;;;;4.32;100.00;100338.31;4982918;28;20229;-73
2022/10/01 03:32:07;;;;;;;6.37;4.30;;;;;;;4.27;100.00;100335.72;4977360;28;20194;-72
2022/10/01 03:34:33;;;;;;;6.37;4.57;;;;;;;4.23;100.00;100338.34;4968966;28;20589;-72
2022/10/01 03:37:00;;;;;;;7.17;4.50;;;;;;;4.24;100.00;100330.59;4984359;28;20209;-72
2022/10/01 03:39:28;;;;;;;8.30;4.77;;;;;;;4.30;100.00;100334.88;4982177;28;21100;-72
2022/10/01 03:41:54;;;;;;;8.50;5.07;;;;;;;4.28;100.00;100328.88;4978397;28;20260;-72
2022/10/01 03:44:20;;;;;;;7.33;4.57;;;;;;;4.25;100.00;100332.31;4983418;28;20197;-72
2022/10/01 03:46:47;;;;;;;10.20;5.10;;;;;;;4.26;100.00;100333.19;4984368;28;20730;-72
2022/10/01 03:49:13;;;;;;;7.13;5.23;;;;;;;4.35;100.00;100335.72;4986072;28;20213;-72
2022/10/01 03:51:40;;;;;;;5.67;4.67;;;;;;;4.31;100.00;100339.16;4979394;28;20193;-73
2022/10/01 03:54:08;;;;;;;6.53;4.53;;;;;;;4.20;100.00;100341.78;4979544;28;20714;-72
2022/10/01 03:56:39;;;;;;;7.50;4.90;;;;;;;4.20;100.00;100334.06;4982287;28;20210;-72
2022/10/01 03:59:06;;;;;;;6.00;4.37;;;;;;;4.13;100.00;100333.25;4983364;28;20221;-72
2022/10/01 04:01:33;;;;;;;5.97;4.23;;;;;;;4.10;100.00;100327.25;4978612;28;20536;-72
2022/10/01 04:03:59;;;;;;;6.30;4.90;;;;;;;4.06;100.00;100333.25;4969332;28;20198;-73
2022/10/01 04:06:26;;;;;;;6.23;4.77;;;;;;;4.10;100.00;100333.25;4985098;28;20458;-73
2022/10/01 04:08:52;;;;;;;7.23;5.17;;;;;;;4.03;100.00;100328.09;4992303;28;20229;-74
2022/10/01 04:11:18;;;;;;;6.57;4.93;;;;;;;4.15;100.00;100330.63;4992857;28;20852;-73
2022/10/01 04:13:47;;;;;;;6.30;4.70;;;;;;;4.05;100.00;100322.09;4985298;28;20666;-74
2022/10/01 04:16:14;;;;;;;7.07;4.83;;;;;;;4.00;100.00;100323.81;4989870;28;20204;-73
2022/10/01 04:18:41;;;;;;;7.83;4.87;;;;;;;4.05;100.00;100323.81;4986075;28;20232;-74
2022/10/01 04:21:07;;;;;;;6.40;4.63;;;;;;;4.02;100.00;100323.81;4985386;28;20225;-74
2022/10/01 04:23:34;;;;;;;9.60;5.60;;;;;;;4.04;100.00;100322.94;4986632;28;20207;-73
2022/10/01 04:26:01;;;;;;;7.83;5.07;;;;;;;4.02;100.00;100322.09;4990776;28;20669;-74
2022/10/01 04:28:29;;;;;;;5.97;4.67;;;;;;;3.98;100.00;100323.81;4986796;28;20587;-73
2022/10/01 04:33:37;;;;;;;7.30;4.77;;;;;;;4.06;100.00;100322.94;4984041;28;20225;-74
2022/10/01 04:36:03;;;;;;;7.53;5.33;;;;;;;4.10;100.00;100324.66;4984709;28;20200;-73
2022/10/01 04:38:29;;;;;;;6.57;5.50;;;;;;;4.12;100.00;100320.34;4987021;28;20224;-73
2022/10/01 04:40:56;;;;;;;9.63;5.13;;;;;;;4.18;100.00;100316.00;4986463;28;20220;-74
2022/10/01 04:43:22;;;;;;;6.40;5.07;;;;;;;4.20;100.00;100315.97;4990675;28;20284;-73
2022/10/01 04:45:48;;;;;;;6.83;5.07;;;;;;;4.23;100.00;100321.13;4985827;28;20204;-75
2022/10/01 04:48:16;;;;;;;6.67;5.37;;;;;;;4.24;100.00;100317.72;4988390;28;20808;-74
2022/10/01 04:50:43;;;;;;;8.60;4.90;;;;;;;4.32;100.00;100321.09;4970583;28;20202;-74
2022/10/01 04:53:09;;;;;;;8.73;6.07;;;;;;;4.39;100.00;100319.34;4990294;28;20201;-74
2022/10/01 04:55:36;;;;;;;6.90;5.83;;;;;;;4.44;100.00;100315.00;4988123;28;20561;-73
2022/10/01 04:58:03;;;;;;;7.53;4.90;;;;;;;4.50;100.00;100308.94;4982921;28;20197;-74
2022/10/01 05:00:30;;;;;;;8.43;5.63;;;;;;;4.56;100.00;100308.91;4988333;28;20197;-75
2022/10/01 05:02:57;;;;;;;9.43;6.00;;;;;;;4.63;100.00;100310.59;4982832;28;20220;-73
2022/10/01 05:05:26;;;;;;;7.93;5.90;;;;;;;4.70;100.00;100308.81;4966457;28;20210;-74
2022/10/01 05:07:53;;;;;;;9.10;6.23;;;;;;;4.77;100.00;100301.88;4987867;28;20194;-74
2022/10/01 05:10:21;;;;;;;7.93;6.07;;;;;;;4.84;100.00;100296.66;4991775;28;20216;-74
2022/10/01 05:12:50;;;;;;;9.57;6.87;;;;;;;4.87;100.00;100300.94;4986914;28;20225;-74
2022/10/01 05:15:17;;;;;;;8.80;6.43;;;;;;;4.93;100.00;100301.75;4994017;28;20589;-74
2022/10/01 05:17:44;;;;;;;7.63;5.80;;;;;;;5.03;100.00;100299.94;4985444;28;20212;-74
2022/10/01 05:20:16;;;;;;;8.80;5.90;;;;;;;5.07;100.00;100300.78;4988032;28;20217;-74
2022/10/01 05:22:44;;;;;;;7.77;5.60;;;;;;;5.16;100.00;100294.69;4982199;28;20690;-75
2022/10/01 05:25:10;;;;;;;9.93;6.70;;;;;;;5.18;100.00;100286.03;4973093;28;20269;-75
2022/10/01 05:27:39;;;;;;;9.20;6.87;;;;;;;5.24;100.00;100295.44;4981900;28;20201;-74
2022/10/01 05:30:07;;;;;;;7.97;6.27;;;;;;;5.29;100.00;100293.66;4989205;28;20305;-74
2022/10/01 05:32:33;;;;;;;8.83;6.70;;;;;;;5.32;100.00;100286.75;4979321;28;20633;-74
2022/10/01 05:35:00;;;;;;;10.33;7.13;;;;;;;5.37;100.00;100285.84;4983601;28;20225;-74
2022/10/01 05:37:26;;;;;;;10.00;7.00;;;;;;;5.43;100.00;100286.63;4983099;28;20622;-74
2022/10/01 05:39:54;;;;;;;10.23;7.37;;;;;;;5.46;100.00;100278.84;4985446;28;20233;-75
2022/10/01 05:42:21;;;;;;;9.00;6.57;;;;;;;5.53;100.00;100284.81;4987404;28;20206;-74
2022/10/01 05:44:48;;;;;;;9.87;7.63;;;;;;;5.56;100.00;100279.63;4986140;28;20204;-75
2022/10/01 05:47:16;;;;;;;9.17;7.10;;;;;;;5.64;100.00;100280.38;4985507;28;20752;-74
2022/10/01 05:49:43;;;;;;;10.27;6.97;;;;;;;5.72;100.00;100282.88;4981103;28;20765;-74
2022/10/01 05:52:10;;;;;;;19.40;12.20;;;;;;;5.77;100.00;100275.94;4977004;28;20205;-75
2022/10/01 05:54:37;;;;;;;39.10;23.23;;;;;;;5.86;100.00;100287.91;4982381;28;20233;-75
2022/10/01 05:57:05;;;;;;;32.20;20.30;;;;;;;5.91;100.00;100283.53;4983764;28;20209;-74
2022/10/01 05:59:31;;;;;;;27.27;17.40;;;;;;;5.96;100.00;100271.41;4975998;28;20722;-74
2022/10/01 06:01:58;;;;;;;25.20;17.97;;;;;;;6.03;100.00;100274.75;4981110;28;20548;-74
2022/10/01 06:04:24;;;;;;;24.30;15.80;;;;;;;6.10;100.00;100276.38;4982938;28;21571;-72
2022/10/01 06:06:50;;;;;;;24.60;15.93;;;;;;;6.15;100.00;100278.94;4982084;28;20201;-74
2022/10/01 06:09:17;;;;;;;27.80;18.17;;;;;;;6.20;100.00;100267.63;4983543;28;20225;-74
2022/10/01 06:11:45;;;;;;;60.17;34.63;;;;;;;6.28;100.00;100267.53;4987842;28;20209;-73
2022/10/01 06:14:13;;;;;;;56.50;30.03;;;;;;;6.35;100.00;100268.28;4976096;28;20245;-73
2022/10/01 06:16:39;;;;;;;35.33;22.07;;;;;;;6.43;100.00;100269.88;4968749;28;20218;-73
2022/10/01 06:19:06;;;;;;;13.20;10.50;;;;;;;6.52;100.00;100265.47;4990574;28;20217;-73
2022/10/01 06:21:32;;;;;;;16.13;11.60;;;;;;;6.63;100.00;100255.78;4988409;28;20754;-73
2022/10/01 06:23:58;;;;;;;17.03;10.80;;;;;;;6.73;100.00;100246.13;4983339;28;20203;-74
2022/10/01 06:26:25;;;;;;;14.73;9.33;;;;;;;6.82;100.00;100245.97;4988740;28;20215;-74
2022/10/01 06:28:51;;;;;;;12.53;9.83;;;;;;;6.89;100.00;100239.81;4985182;28;20226;-74
2022/10/01 06:31:19;;;;;;;16.53;11.47;;;;;;;6.97;100.00;100229.31;4978332;28;20219;-74
2022/10/01 06:33:46;;;;;;;15.90;11.47;;;;;;;7.05;100.00;100229.16;4985851;28;20206;-73
2022/10/01 06:36:12;;;;;;;13.43;9.60;;;;;;;7.11;100.00;100213.53;4979533;28;20207;-74
2022/10/01 06:38:39;;;;;;;14.27;10.53;;;;;;;7.18;100.00;100212.53;4982938;28;20249;-74
2022/10/01 06:41:06;;;;;;;14.50;10.47;;;;;;;7.25;100.00;100208.09;4988871;28;20200;-73
2022/10/01 06:43:33;;;;;;;14.67;9.93;;;;;;;7.30;100.00;100204.50;4981567;28;20204;-74
2022/10/01 06:46:01;;;;;;;13.13;9.13;;;;;;;7.35;100.00;100196.63;4984289;28;20207;-74
2022/10/01 06:48:30;;;;;;;11.43;9.30;;;;;;;7.39;100.00;100193.09;4963556;28;20229;-74
2022/10/01 06:50:57;;;;;;;14.20;9.27;;;;;;;7.45;100.00;100197.31;4985527;28;20256;-74
2022/10/01 06:53:23;;;;;;;14.50;9.37;;;;;;;7.52;100.00;100186.75;4980296;28;20296;-73
2022/10/01 06:55:50;;;;;;;16.53;10.03;;;;;;;7.59;100.00;100182.31;4982010;28;20305;-73
2022/10/01 06:58:19;;;;;;;12.80;8.53;;;;;;;7.67;100.00;100183.00;4969376;28;20228;-73
2022/10/01 07:00:46;;;;;;;17.00;10.47;;;;;;;7.77;100.00;100178.47;4984454;28;20196;-73
2022/10/01 07:03:15;;;;;;;13.47;10.37;;;;;;;7.88;100.00;100167.84;4979948;28;20228;-73
2022/10/01 07:05:43;;;;;;;12.90;9.53;;;;;;;8.00;100.00;100166.72;4986971;28;20205;-73
2022/10/01 07:08:09;;;;;;;13.57;9.70;;;;;;;8.11;100.00;100165.59;4988166;28;20206;-73
2022/10/01 07:10:37;;;;;;;15.50;9.57;;;;;;;8.23;100.00;100155.78;4987054;28;20209;-73
2022/10/01 07:13:07;;;;;;;15.00;10.23;;;;;;;8.32;100.00;100153.84;4987039;28;20630;-73
2022/10/01 07:15:34;;;;;;;16.20;10.03;;;;;;;8.42;100.00;100157.09;4965245;28;20226;-73
2022/10/01 07:18:01;;;;;;;18.13;11.07;;;;;;;8.51;100.00;100150.81;4980695;28;20645;-74
2022/10/01 07:20:27;;;;;;;17.20;11.60;;;;;;;8.59;100.00;100148.88;4985543;28;20202;-73
2022/10/01 07:22:59;;;;;;;15.93;10.73;;;;;;;8.66;100.00;100145.22;4982092;28;20251;-73
2022/10/01 07:25:26;;;;;;;15.30;10.97;;;;;;;8.74;100.00;100145.00;4986032;28;20216;-73
2022/10/01 07:27:55;;;;;;;16.00;9.70;;;;;;;8.81;100.00;100136.19;4986969;28;20202;-74
2022/10/01 07:30:22;;;;;;;15.23;9.27;;;;;;;8.89;100.00;100139.41;4981646;28;20638;-73
2022/10/01 07:32:49;;;;;;;17.77;10.90;;;;;;;8.96;100.00;100139.25;4977478;28;20562;-74
2022/10/01 07:35:16;;;;;;;15.97;10.27;;;;;;;9.02;100.00;100134.75;4981696;28;20591;-74
2022/10/01 07:37:42;;;;;;;17.60;10.73;;;;;;;9.11;100.00;100133.63;4986273;28;20231;-74
2022/10/01 07:40:10;;;;;;;15.07;9.80;;;;;;;9.19;100.00;100129.06;4975072;28;20586;-75
2022/10/01 07:42:37;;;;;;;16.87;9.87;;;;;;;9.24;100.00;100131.53;4979116;28;20727;-73
2022/10/01 07:45:05;;;;;;;17.17;10.60;;;;;;;9.33;100.00;100130.44;4985260;28;20196;-74
2022/10/01 07:47:32;;;;;;;19.83;11.57;;;;;;;9.40;100.00;100134.56;4977195;28;20841;-73
2022/10/01 07:49:58;;;;;;;16.80;10.20;;;;;;;9.46;100.00;100135.25;4984570;28;20215;-75
2022/10/01 07:52:24;;;;;;;14.60;10.80;;;;;;;9.55;100.00;100130.63;4985039;28;20391;-73
2022/10/01 07:54:51;;;;;;;15.23;10.03;;;;;;;9.60;100.00;100121.81;4983513;28;20221;-74
2022/10/01 07:57:19;;;;;;;17.50;10.67;;;;;;;9.69;100.00;100120.66;4973296;28;20206;-73
2022/10/01 07:59:45;;;;;;;17.30;10.37;;;;;;;9.76;100.00;100122.19;5001395;23;20253;-70
2022/10/01 08:02:14;;;;;;;16.40;10.57;;;;;;;9.81;100.00;100124.66;4998893;28;20209;-70
2022/10/01 08:07:25;;;;;;;16.83;10.23;;;;;;;9.85;100.00;100118.47;4979189;28;20211;-71
2022/10/01 08:09:51;;;;;;;13.33;8.93;;;;;;;9.85;100.00;100110.66;4981263;28;20204;-69
2022/10/01 08:12:19;;;;;;;16.70;10.40;;;;;;;9.88;100.00;100109.69;4990975;28;20204;-71
2022/10/01 08:14:46;;;;;;;12.37;9.17;;;;;;;9.90;100.00;100107.88;4940891;29;20830;-70
2022/10/01 08:17:13;;;;;;;16.53;9.37;;;;;;;9.93;100.00;100099.97;4946314;29;20260;-70
2022/10/01 08:19:39;;;;;;;13.07;8.63;;;;;;;9.98;100.00;100101.53;4943226;29;20214;-70
2022/10/01 08:22:07;;;;;;;19.10;9.37;;;;;;;10.01;100.00;100103.22;4952263;28;20225;-69
2022/10/01 08:24:35;;;;;;;12.33;8.57;;;;;;;10.09;100.00;100100.34;4962112;28;20196;-70
2022/10/01 08:27:02;;;;;;;10.37;7.70;;;;;;;10.13;100.00;100099.31;4963044;28;21609;-71
2022/10/01 08:29:29;;;;;;;10.03;7.33;;;;;;;10.14;100.00;100103.66;4963119;28;20209;-70
2022/10/01 08:31:57;;;;;;;8.90;6.10;;;;;;;10.17;100.00;100101.78;4961210;28;20236;-70
2022/10/01 08:34:23;;;;;;;7.07;5.30;;;;;;;10.19;100.00;100092.16;4953597;28;20201;-70
2022/10/01 08:36:51;;;;;;;6.90;5.03;;;;;;;10.21;100.00;100094.72;4955256;28;20658;-70
2022/10/01 08:39:17;;;;;;;5.13;4.63;;;;;;;10.22;100.00;100099.91;4959986;28;20204;-70
2022/10/01 08:41:51;;;;;;;6.30;4.23;;;;;;;10.21;100.00;100097.34;4961112;28;20805;-69
2022/10/01 08:44:20;;;;;;;4.97;4.20;;;;;;;10.24;100.00;100089.44;4959661;28;20214;-70
2022/10/01 08:46:49;;;;;;;4.77;3.90;;;;;;;10.27;100.00;100089.28;4958323;28;20206;-70
2022/10/01 08:49:24;;;;;;;5.60;3.90;;;;;;;10.33;100.00;100090.91;4959417;28;20214;-70
2022/10/01 08:51:55;;;;;;;5.00;3.83;;;;;;;10.38;100.00;100082.03;4960908;28;20217;-70
2022/10/01 08:54:29;;;;;;;5.20;3.80;;;;;;;10.41;100.00;100087.13;4965575;28;20205;-69
2022/10/01 08:56:59;;;;;;;4.93;4.00;;;;;;;10.46;100.00;100076.53;4961663;28;20200;-69
2022/10/01 08:59:35;;;;;;;5.83;4.13;;;;;;;10.49;100.00;100071.22;4968496;28;20216;-70
2022/10/01 09:02:02;;;;;;;4.47;3.23;;;;;;;10.55;100.00;100080.59;4968281;28;20229;-70
2022/10/01 09:04:30;;;;;;;6.53;3.47;;;;;;;10.58;100.00;100064.84;4967387;28;20694;-71
2022/10/01 09:07:03;;;;;;;8.07;3.80;;;;;;;10.66;100.00;100064.56;4966350;28;20491;-69
2022/10/01 09:09:43;;;;;;;4.03;3.47;;;;;;;10.72;100.00;100069.56;4966485;28;20202;-70
2022/10/01 09:12:25;;;;;;;5.93;3.40;;;;;;;10.74;100.00;100052.97;4964567;28;20374;-70
2022/10/01 09:15:03;;;;;;;4.80;3.47;;;;;;;10.82;100.00;100054.44;4965057;28;20593;-72
2022/10/01 09:17:48;;;;;;;4.00;3.30;;;;;;;10.87;100.00;100047.28;4949086;28;20306;-70
2022/10/01 09:20:23;;;;;;;4.30;3.43;;;;;;;10.95;100.00;100048.72;4965228;28;20201;-70
2022/10/01 09:23:02;;;;;;;4.17;3.37;;;;;;;11.05;100.00;100038.81;4963976;28;20217;-70
2022/10/01 09:25:28;;;;;;;11.27;4.90;;;;;;;11.15;100.00;100032.34;4963682;28;20193;-70
2022/10/01 09:28:02;;;;;;;6.23;4.17;;;;;;;11.26;100.00;100025.88;4966634;28;20944;-70
2022/10/01 09:30:31;;;;;;;8.23;5.47;;;;;;;11.36;100.00;100030.66;4963565;28;20206;-71
2022/10/01 09:33:03;;;;;;;7.23;4.47;;;;;;;11.46;100.00;100025.06;4949370;28;20605;-70
2022/10/01 09:35:42;;;;;;;5.90;4.03;;;;;;;11.58;100.00;100015.94;4963938;28;20244;-71
2022/10/01 09:38:17;;;;;;;5.90;3.50;;;;;;;11.67;100.00;100011.16;4961765;28;20612;-70
2022/10/01 09:40:53;;;;;;;5.80;3.30;;;;;;;11.75;100.00;100016.09;4964125;28;20211;-70
2022/10/01 09:43:22;;;;;;;7.00;3.30;;;;;;;11.84;100.00;100010.50;4961545;28;20608;-70
2022/10/01 09:45:49;;;;;;;5.40;3.07;;;;;;;11.96;100.00;100001.34;4945329;28;20610;-71
2022/10/01 09:48:23;;;;;;;4.20;2.93;;;;;;;12.15;100.00;100000.53;4962985;28;20221;-70
2022/10/01 09:50:57;;;;;;;7.27;3.47;;;;;;;12.34;100.00;99996.22;4945553;28;20238;-71
2022/10/01 09:53:29;;;;;;;4.03;2.73;;;;;;;12.45;100.00;99998.38;4961249;28;20206;-71
2022/10/01 09:56:00;;;;;;;4.10;2.70;;;;;;;12.60;100.00;99996.84;4962386;28;20218;-70
2022/10/01 09:58:28;;;;;;;3.57;2.47;;;;;;;12.68;100.00;99992.09;4957825;28;20251;-70
2022/10/01 10:00:55;;;;;;;4.17;2.90;;;;;;;12.75;100.00;99990.06;4959376;28;20239;-70
2022/10/01 10:03:24;;;;;;;3.57;2.60;;;;;;;12.79;100.00;99994.28;4961044;28;20259;-71
2022/10/01 10:05:52;;;;;;;3.00;2.60;;;;;;;12.78;100.00;100001.25;4960481;28;20293;-70
2022/10/01 10:08:26;;;;;;;3.30;2.67;;;;;;;12.83;100.00;99993.19;4962730;28;20775;-71
2022/10/01 10:10:59;;;;;;;4.17;3.30;;;;;;;12.84;100.00;99998.38;4966781;28;20782;-70
2022/10/01 10:13:33;;;;;;;4.27;3.13;;;;;;;12.92;100.00;99999.78;4964542;28;20673;-71
2022/10/01 10:16:06;;;;;;;7.03;2.63;;;;;;;12.95;100.00;99990.03;4963103;28;20642;-70
2022/10/01 10:18:35;;;;;;;3.03;2.40;;;;;;;13.01;100.00;99997.56;4964618;28;20206;-71
2022/10/01 10:21:06;;;;;;;3.67;2.43;;;;;;;13.05;100.00;99993.91;4961095;28;20229;-70
2022/10/01 10:23:33;;;;;;;3.57;2.20;;;;;;;13.08;100.00;99987.69;4964877;28;20198;-69
2022/10/01 10:26:01;;;;;;;6.80;3.13;;;;;;;13.19;100.00;99984.56;4962194;28;20206;-70
2022/10/01 10:28:30;;;;;;;10.00;4.20;;;;;;;13.18;100.00;99977.63;4965474;28;20673;-71
2022/10/01 10:30:57;;;;;;;4.10;2.67;;;;;;;13.13;100.00;99977.84;4963552;28;20201;-70
2022/10/01 10:33:25;;;;;;;5.00;3.10;;;;;;;13.08;100.00;99977.22;4962935;28;20205;-70
2022/10/01 10:36:02;;;;;;;3.33;2.30;;;;;;;12.93;100.00;99967.44;4955571;28;20242;-70
2022/10/01 10:38:33;;;;;;;3.50;2.30;;;;;;;12.75;100.00;99966.53;4955884;28;20217;-71
2022/10/01 10:41:00;;;;;;;3.50;2.17;;;;;;;12.66;100.00;99959.94;4960728;28;20228;-70
2022/10/01 10:43:30;;;;;;;5.33;2.70;;;;;;;12.68;100.00;99955.50;4959038;28;20376;-71
2022/10/01 10:45:58;;;;;;;5.43;3.27;;;;;;;12.66;100.00;99957.34;4960273;28;20239;-70
2022/10/01 10:48:30;;;;;;;6.33;3.70;;;;;;;12.60;100.00;99955.84;4955356;28;20752;-69
2022/10/01 10:51:01;;;;;;;4.70;3.13;;;;;;;12.57;100.00;99950.75;4962938;28;20547;-70
2022/10/01 10:53:45;;;;;;;3.70;2.87;;;;;;;12.57;100.00;99945.53;4961878;28;20299;-70
2022/10/01 10:56:21;;;;;;;3.07;2.53;;;;;;;12.56;100.00;99935.13;4956267;28;20223;-70
2022/10/01 10:58:48;;;;;;;3.37;2.20;;;;;;;12.62;100.00;99930.47;4956441;28;20205;-70
2022/10/01 11:01:18;;;;;;;2.70;2.40;;;;;;;12.45;100.00;99930.38;4957756;28;20230;-70
2022/10/01 11:03:48;;;;;;;3.40;2.50;;;;;;;12.45;100.00;99922.53;4955990;28;20205;-70
2022/10/01 11:06:17;;;;;;;3.70;3.00;;;;;;;12.36;100.00;99921.19;4959001;28;20215;-70
2022/10/01 11:08:55;;;;;;;3.70;2.47;;;;;;;12.28;100.00;99921.53;4959443;28;20211;-70
2022/10/01 11:11:36;;;;;;;4.03;2.90;;;;;;;12.20;100.00;99915.78;4958495;28;20405;-71
2022/10/01 11:14:17;;;;;;;4.00;3.20;;;;;;;12.08;100.00;99924.19;4960764;28;20216;-70
2022/10/01 11:16:59;;;;;;;4.43;3.23;;;;;;;12.02;100.00;99927.91;4958105;28;20311;-70
2022/10/01 11:19:42;;;;;;;3.83;3.03;;;;;;;11.96;100.00;99929.94;4957189;28;20230;-70
2022/10/01 11:22:22;;;;;;;3.77;3.30;;;;;;;11.83;100.00;99925.19;4957741;28;20218;-71
2022/10/01 11:25:01;;;;;;;3.70;3.07;;;;;;;11.80;100.00;99922.72;4956341;28;20204;-70
2022/10/01 11:27:39;;;;;;;4.73;3.67;;;;;;;11.73;100.00;99923.88;4961474;28;20565;-70
2022/10/01 11:30:10;;;;;;;4.80;3.87;;;;;;;11.71;100.00;99917.88;4959810;28;20250;-68
2022/10/01 11:32:40;;;;;;;4.43;3.33;;;;;;;11.64;100.00;99927.72;4959529;28;20223;-70
2022/10/01 11:35:26;;;;;;;3.37;2.63;;;;;;;11.54;100.00;99932.50;4956598;28;20194;-69
2022/10/01 11:38:08;;;;;;;5.33;3.53;;;;;;;11.49;100.00;99929.22;4953276;28;20208;-70